Time;durP1;ratioP1;P1;durP2;ratioP2;P2;SDS_P1;SDS_P2;PMS_P1;PMS_P2;Temp;Humidity;BMP_temperature;BMP_pressure;BME280_temperature;BME280_humidity;BME280_pressure;Samples;Min_cycle;Max_cycle;Signal;HPM_P1;HPM_P2
2022/05/17 00:00:44;;;;;;;16.50;11.18;;;;;;;;;;6315852;28;20055;-82
2022/05/17 00:03:47;;;;;;;17.67;10.63;;;;;;;;;;6294309;28;20063;-83
2022/05/17 00:06:49;;;;;;;20.95;10.40;;;;;;;;;;6282935;28;20076;-82
2022/05/17 00:09:50;;;;;;;20.58;10.85;;;;;;;;;;6305500;28;20065;-83
2022/05/17 00:12:53;;;;;;;33.47;12.57;;;;;;;;;;6295762;28;20048;-83
2022/05/17 00:15:55;;;;;;;32.22;11.73;;;;;;;;;;6295758;28;20086;-81
2022/05/17 00:18:57;;;;;;;21.95;11.95;;;;;;;;;;6309748;28;20040;-82
2022/05/17 00:21:59;;;;;;;38.63;12.90;;;;;;;;;;6301013;28;20049;-82
2022/05/17 00:25:01;;;;;;;20.13;12.02;;;;;;;;;;6295701;28;20076;-83
2022/05/17 00:28:04;;;;;;;28.23;15.17;;;;;;;;;;6310698;28;20194;-82
2022/05/17 00:31:06;;;;;;;25.13;13.43;;;;;;;;;;6304525;28;20097;-82
2022/05/17 00:34:08;;;;;;;27.63;13.48;;;;;;;;;;6302014;28;20041;-82
2022/05/17 00:37:10;;;;;;;20.27;13.05;;;;;;;;;;6277806;28;20070;-82
2022/05/17 00:40:12;;;;;;;23.48;12.32;;;;;;;;;;6276406;28;20102;-83
2022/05/17 00:43:29;;;;;;;20.33;12.70;;;;;;;;;;6310870;28;20521;-83
2022/05/17 00:47:05;;;;;;;22.17;12.90;;;;;;;;;;6311037;28;20061;-83
2022/05/17 00:50:19;;;;;;;28.60;12.43;;;;;;;;;;6284168;28;20055;-81
2022/05/17 00:53:33;;;;;;;23.65;12.50;;;;;;;;;;6286066;28;20067;-82
2022/05/17 00:56:40;;;;;;;23.67;12.90;;;;;;;;;;6304190;28;20905;-83
2022/05/17 00:59:42;;;;;;;28.15;12.40;;;;;;;;;;6305995;28;20040;-82
2022/05/17 01:02:48;;;;;;;25.65;12.52;;;;;;;;;;6304660;28;20044;-82
2022/05/17 01:05:54;;;;;;;26.55;12.30;;;;;;;;;;6313374;28;20049;-83
2022/05/17 01:08:55;;;;;;;26.52;12.27;;;;;;;;;;6297895;28;20078;-83
2022/05/17 01:11:57;;;;;;;45.15;13.38;;;;;;;;;;6312830;28;20040;-82
2022/05/17 01:15:00;;;;;;;25.63;13.13;;;;;;;;;;6321273;28;20084;-82
2022/05/17 01:18:03;;;;;;;27.58;13.23;;;;;;;;;;6315167;28;20051;-83
2022/05/17 01:21:06;;;;;;;31.70;12.45;;;;;;;;;;6296324;28;20048;-81
2022/05/17 01:24:08;;;;;;;33.28;14.00;;;;;;;;;;6330264;28;20073;-82
2022/05/17 01:27:16;;;;;;;42.53;13.25;;;;;;;;;;6332392;28;20073;-82
2022/05/17 01:30:20;;;;;;;40.88;12.88;;;;;;;;;;6321775;28;20048;-81
2022/05/17 01:33:22;;;;;;;34.35;12.50;;;;;;;;;;6314298;28;20035;-82
2022/05/17 01:36:24;;;;;;;25.13;12.38;;;;;;;;;;6325698;28;20377;-83
2022/05/17 01:39:25;;;;;;;44.35;13.70;;;;;;;;;;6295841;28;20040;-82
2022/05/17 01:42:27;;;;;;;34.40;13.32;;;;;;;;;;6311009;28;20043;-82
2022/05/17 01:45:29;;;;;;;34.72;12.73;;;;;;;;;;6297599;28;20041;-82
2022/05/17 01:48:31;;;;;;;41.85;13.38;;;;;;;;;;6301930;28;20039;-82
2022/05/17 01:51:32;;;;;;;38.38;12.50;;;;;;;;;;6303620;28;20127;-83
2022/05/17 01:54:34;;;;;;;40.47;14.55;;;;;;;;;;6304654;28;20175;-82
2022/05/17 01:57:36;;;;;;;38.72;15.00;;;;;;;;;;6327294;28;20046;-83
2022/05/17 02:00:38;;;;;;;55.20;16.07;;;;;;;;;;6319686;28;20125;-83
2022/05/17 02:03:40;;;;;;;79.10;17.48;;;;;;;;;;6297804;28;20052;-83
2022/05/17 02:06:42;;;;;;;69.70;16.33;;;;;;;;;;6295583;28;20055;-83
2022/05/17 02:09:43;;;;;;;71.18;14.75;;;;;;;;;;6296981;28;20052;-81
2022/05/17 02:12:45;;;;;;;74.28;14.35;;;;;;;;;;6296502;28;20083;-83
2022/05/17 02:15:47;;;;;;;107.88;15.20;;;;;;;;;;6295464;28;20186;-81
2022/05/17 02:18:48;;;;;;;102.10;13.45;;;;;;;;;;6310028;28;20070;-82
2022/05/17 02:21:50;;;;;;;52.13;14.52;;;;;;;;;;6319388;28;20357;-82
2022/05/17 02:24:52;;;;;;;47.95;12.20;;;;;;;;;;6319308;28;20052;-81
2022/05/17 02:27:54;;;;;;;53.28;14.55;;;;;;;;;;6299014;28;20048;-81
2022/05/17 02:30:55;;;;;;;41.95;11.40;;;;;;;;;;6295089;28;20108;-83
2022/05/17 02:33:57;;;;;;;49.60;11.13;;;;;;;;;;6294809;28;20056;-83
2022/05/17 02:36:59;;;;;;;29.55;8.88;;;;;;;;;;6299702;28;20109;-82
2022/05/17 02:40:01;;;;;;;25.95;9.00;;;;;;;;;;6298410;28;20090;-83
2022/05/17 02:43:03;;;;;;;27.27;10.73;;;;;;;;;;6309875;28;20051;-83
2022/05/17 02:46:05;;;;;;;16.20;9.70;;;;;;;;;;6316224;28;20128;-83
2022/05/17 02:49:10;;;;;;;22.20;10.73;;;;;;;;;;6312368;28;20040;-83
2022/05/17 02:52:12;;;;;;;22.63;11.43;;;;;;;;;;6297551;28;20157;-84
2022/05/17 02:55:14;;;;;;;16.33;10.32;;;;;;;;;;6322350;28;20085;-82
2022/05/17 02:58:16;;;;;;;15.57;9.98;;;;;;;;;;6333129;28;20128;-81
2022/05/17 03:01:20;;;;;;;33.08;10.60;;;;;;;;;;6343202;28;20043;-81
2022/05/17 03:04:22;;;;;;;36.50;11.75;;;;;;;;;;6344159;28;20131;-81
2022/05/17 03:07:26;;;;;;;27.70;11.18;;;;;;;;;;6335011;28;20067;-81
2022/05/17 03:10:29;;;;;;;22.35;10.98;;;;;;;;;;6323463;28;20071;-81
2022/05/17 03:13:31;;;;;;;46.85;12.68;;;;;;;;;;6345657;28;20542;-81
2022/05/17 03:16:33;;;;;;;25.67;11.45;;;;;;;;;;6348182;28;20067;-81
2022/05/17 03:19:35;;;;;;;81.88;15.68;;;;;;;;;;6350246;28;20061;-81
2022/05/17 03:22:36;;;;;;;39.97;11.48;;;;;;;;;;6349755;28;20047;-81
2022/05/17 03:25:38;;;;;;;64.25;12.20;;;;;;;;;;6326353;28;20044;-81
2022/05/17 03:28:40;;;;;;;38.60;11.25;;;;;;;;;;6307924;28;20043;-81
2022/05/17 03:31:42;;;;;;;27.17;11.13;;;;;;;;;;6325727;28;20720;-81
2022/05/17 03:34:43;;;;;;;27.08;9.70;;;;;;;;;;6326654;28;20052;-81
2022/05/17 03:37:45;;;;;;;30.63;10.60;;;;;;;;;;6326685;28;20105;-81
2022/05/17 03:40:47;;;;;;;43.75;10.73;;;;;;;;;;6324814;28;20070;-80
2022/05/17 03:43:48;;;;;;;32.30;11.23;;;;;;;;;;6297455;28;20064;-81
2022/05/17 03:46:50;;;;;;;38.00;11.88;;;;;;;;;;6312457;28;20056;-81
2022/05/17 03:49:51;;;;;;;40.55;11.50;;;;;;;;;;6346036;28;20051;-80
2022/05/17 03:52:53;;;;;;;25.38;10.48;;;;;;;;;;6332782;28;20052;-81
2022/05/17 03:55:56;;;;;;;38.70;10.82;;;;;;;;;;6294551;28;20277;-82
2022/05/17 03:58:57;;;;;;;33.00;10.90;;;;;;;;;;6284836;28;20198;-81
2022/05/17 04:01:59;;;;;;;34.33;10.77;;;;;;;;;;6296166;28;20055;-80
2022/05/17 04:05:02;;;;;;;22.02;10.85;;;;;;;;;;6287370;28;20068;-81
2022/05/17 04:08:04;;;;;;;26.33;10.32;;;;;;;;;;6291257;28;20036;-81
2022/05/17 04:11:06;;;;;;;27.45;13.75;;;;;;;;;;6291027;28;20052;-81
2022/05/17 04:14:08;;;;;;;17.30;10.47;;;;;;;;;;6307499;28;20094;-81
2022/05/17 04:17:10;;;;;;;44.05;11.20;;;;;;;;;;6292280;28;20474;-81
2022/05/17 04:20:13;;;;;;;27.33;10.68;;;;;;;;;;6289662;28;20048;-81
2022/05/17 04:23:15;;;;;;;17.08;8.50;;;;;;;;;;6292661;28;20068;-81
2022/05/17 04:26:18;;;;;;;17.08;8.45;;;;;;;;;;6291123;28;20040;-80
2022/05/17 04:29:20;;;;;;;20.77;8.73;;;;;;;;;;6311633;28;20136;-83
2022/05/17 04:32:21;;;;;;;17.35;8.25;;;;;;;;;;6311847;28;20059;-81
2022/05/17 04:35:23;;;;;;;32.20;9.45;;;;;;;;;;6305982;28;20181;-81
2022/05/17 04:38:25;;;;;;;36.23;9.13;;;;;;;;;;6289578;28;20052;-81
2022/05/17 04:41:27;;;;;;;15.65;8.73;;;;;;;;;;6288675;28;20438;-81
2022/05/17 04:44:29;;;;;;;15.20;8.07;;;;;;;;;;6278575;28;20053;-81
2022/05/17 04:47:31;;;;;;;23.17;9.10;;;;;;;;;;6282352;28;20123;-81
2022/05/17 04:50:33;;;;;;;23.05;8.35;;;;;;;;;;6288307;28;20091;-80
2022/05/17 04:53:37;;;;;;;19.23;8.63;;;;;;;;;;6288470;28;20060;-80
2022/05/17 04:56:38;;;;;;;31.02;9.40;;;;;;;;;;6290397;28;20048;-81
2022/05/17 04:59:40;;;;;;;21.27;9.13;;;;;;;;;;6291920;28;20112;-79
2022/05/17 05:02:42;;;;;;;39.25;9.35;;;;;;;;;;6294217;28;20150;-80
2022/05/17 05:05:43;;;;;;;25.42;9.48;;;;;;;;;;6317624;28;20048;-81
2022/05/17 05:08:45;;;;;;;17.40;8.98;;;;;;;;;;6316498;28;20464;-81
2022/05/17 05:11:47;;;;;;;30.50;9.43;;;;;;;;;;6307758;28;20117;-81
2022/05/17 05:14:49;;;;;;;27.45;10.55;;;;;;;;;;6293307;28;20083;-79
2022/05/17 05:17:50;;;;;;;24.20;9.55;;;;;;;;;;6291209;28;20068;-80
2022/05/17 05:21:09;;;;;;;28.98;9.48;;;;;;;;;;6304777;28;20141;-81
2022/05/17 05:24:11;;;;;;;23.05;8.68;;;;;;;;;;6306141;28;20389;-79
2022/05/17 05:27:13;;;;;;;30.65;9.20;;;;;;;;;;6299084;28;20083;-81
2022/05/17 05:30:16;;;;;;;16.75;8.27;;;;;;;;;;6315376;28;20117;-79
2022/05/17 05:33:18;;;;;;;17.80;9.15;;;;;;;;;;6307000;28;20537;-79
2022/05/17 05:36:19;;;;;;;23.05;8.57;;;;;;;;;;6289960;28;20496;-81
2022/05/17 05:39:21;;;;;;;15.30;7.45;;;;;;;;;;6288852;28;20096;-80
2022/05/17 05:42:24;;;;;;;51.40;9.07;;;;;;;;;;6290339;28;20402;-80
2022/05/17 05:45:27;;;;;;;35.55;8.77;;;;;;;;;;6291651;28;20040;-82
2022/05/17 05:48:29;;;;;;;17.38;8.90;;;;;;;;;;6304834;28;20078;-81
2022/05/17 05:51:31;;;;;;;14.82;8.68;;;;;;;;;;6326140;28;20059;-81
2022/05/17 05:54:33;;;;;;;13.35;7.40;;;;;;;;;;6327910;28;20591;-80
2022/05/17 05:57:35;;;;;;;16.73;8.55;;;;;;;;;;6336786;28;20132;-81
2022/05/17 06:00:38;;;;;;;18.20;9.43;;;;;;;;;;6319591;28;20096;-80
2022/05/17 06:03:40;;;;;;;;;;;;;;;;;;6325598;28;20197;-82
2022/05/17 06:06:42;;;;;;;21.50;10.43;;;;;;;;;;6344885;28;20484;-82
2022/05/17 06:09:44;;;;;;;85.00;12.83;;;;;;;;;;6344836;28;20040;-82
2022/05/17 06:12:47;;;;;;;30.63;10.90;;;;;;;;;;6324695;28;20052;-83
2022/05/17 06:15:51;;;;;;;21.67;11.25;;;;;;;;;;6304295;28;20126;-83
2022/05/17 06:18:53;;;;;;;22.23;11.68;;;;;;;;;;6310066;28;20044;-83
2022/05/17 06:21:55;;;;;;;30.13;11.77;;;;;;;;;;6298078;28;20044;-81
2022/05/17 06:24:56;;;;;;;31.90;11.50;;;;;;;;;;6296236;28;20052;-82
2022/05/17 06:27:59;;;;;;;23.65;11.30;;;;;;;;;;6296030;28;20225;-82
2022/05/17 06:31:00;;;;;;;41.47;12.57;;;;;;;;;;6296845;28;20448;-80
2022/05/17 06:34:02;;;;;;;22.00;12.93;;;;;;;;;;6293669;28;20071;-80
2022/05/17 06:37:05;;;;;;;17.48;11.05;;;;;;;;;;6320151;28;20116;-80
2022/05/17 06:40:08;;;;;;;18.77;10.82;;;;;;;;;;6303041;28;20062;-82
2022/05/17 06:43:10;;;;;;;20.52;11.13;;;;;;;;;;6321726;28;20060;-83
2022/05/17 06:46:12;;;;;;;20.10;11.90;;;;;;;;;;6324719;28;20489;-83
2022/05/17 06:49:13;;;;;;;16.50;10.90;;;;;;;;;;6322857;28;20055;-82
2022/05/17 06:52:16;;;;;;;19.95;11.50;;;;;;;;;;6318401;28;20097;-82
2022/05/17 06:55:18;;;;;;;18.15;11.55;;;;;;;;;;6322877;28;20101;-82
2022/05/17 06:58:20;;;;;;;19.43;11.97;;;;;;;;;;6321652;28;20040;-83
2022/05/17 07:01:22;;;;;;;22.08;12.38;;;;;;;;;;6321970;28;20066;-82
2022/05/17 07:04:24;;;;;;;21.23;12.77;;;;;;;;;;6340838;28;20085;-82
2022/05/17 07:07:26;;;;;;;26.48;14.65;;;;;;;;;;6347866;28;20044;-82
2022/05/17 07:13:58;;;;;;;22.20;13.18;;;;;;;;;;6235424;28;20040;-82
2022/05/17 07:17:00;;;;;;;21.92;12.60;;;;;;;;;;6304754;28;20050;-82
2022/05/17 07:20:02;;;;;;;22.52;12.55;;;;;;;;;;6303641;28;20040;-81
2022/05/17 07:23:04;;;;;;;20.53;12.40;;;;;;;;;;6321030;28;20189;-82
2022/05/17 07:26:11;;;;;;;19.45;11.95;;;;;;;;;;6324735;28;20465;-81
2022/05/17 07:29:13;;;;;;;20.55;12.60;;;;;;;;;;6325858;28;20069;-79
2022/05/17 07:32:14;;;;;;;16.13;10.77;;;;;;;;;;6344738;28;20059;-79
2022/05/17 07:35:16;;;;;;;15.55;10.98;;;;;;;;;;6321121;28;20099;-80
2022/05/17 07:38:18;;;;;;;17.00;11.13;;;;;;;;;;6321238;28;20040;-81
2022/05/17 07:41:20;;;;;;;18.63;12.23;;;;;;;;;;6322948;28;20048;-80
2022/05/17 07:44:22;;;;;;;18.92;11.88;;;;;;;;;;6330568;28;20040;-81
2022/05/17 07:47:23;;;;;;;19.17;11.70;;;;;;;;;;6286465;28;20063;-81
2022/05/17 07:50:25;;;;;;;18.55;11.27;;;;;;;;;;6319217;28;20085;-80
2022/05/17 07:53:27;;;;;;;18.40;10.57;;;;;;;;;;6302362;28;20501;-80
2022/05/17 07:56:28;;;;;;;18.50;10.75;;;;;;;;;;6318061;28;20068;-78
2022/05/17 07:59:30;;;;;;;20.20;10.50;;;;;;;;;;6301348;28;20497;-78
2022/05/17 08:02:33;;;;;;;15.30;8.35;;;;;;;;;;6318328;28;20044;-81
2022/05/17 08:05:35;;;;;;;;;;;;;;;;;;6319398;28;20040;-80
2022/05/17 08:08:37;;;;;;;9.82;5.68;;;;;;;;;;6318876;28;19972;-82
2022/05/17 08:11:40;;;;;;;12.77;6.25;;;;;;;;;;6318362;28;20051;-81
2022/05/17 08:14:44;;;;;;;8.40;5.05;;;;;;;;;;6296354;28;20067;-79
2022/05/17 08:17:45;;;;;;;8.48;5.20;;;;;;;;;;6317062;28;20129;-80
2022/05/17 08:20:47;;;;;;;6.78;5.15;;;;;;;;;;6301641;28;20044;-80
2022/05/17 08:23:48;;;;;;;11.18;4.80;;;;;;;;;;6320915;28;20085;-80
2022/05/17 08:30:14;;;;;;;9.20;4.40;;;;;;;;;;6301891;28;20959;-81
2022/05/17 08:33:19;;;;;;;8.90;4.03;;;;;;;;;;6309738;28;20087;-82
2022/05/17 08:36:21;;;;;;;10.57;4.60;;;;;;;;;;6345734;28;20096;-82
2022/05/17 08:39:22;;;;;;;7.90;4.13;;;;;;;;;;6329251;28;20136;-82
2022/05/17 08:42:39;;;;;;;6.53;3.88;;;;;;;;;;6335487;28;20051;-81
2022/05/17 08:45:57;;;;;;;7.82;3.50;;;;;;;;;;6325002;28;20044;-81
2022/05/17 08:49:22;;;;;;;8.80;3.80;;;;;;;;;;6321229;28;20064;-80
2022/05/17 08:52:26;;;;;;;10.70;4.00;;;;;;;;;;6320930;28;20044;-80
2022/05/17 08:55:36;;;;;;;11.23;3.83;;;;;;;;;;6306317;28;20059;-80
2022/05/17 08:58:40;;;;;;;6.93;3.63;;;;;;;;;;6346251;28;20044;-81
2022/05/17 09:01:49;;;;;;;6.90;3.20;;;;;;;;;;6345031;28;20092;-82
2022/05/17 09:05:06;;;;;;;7.82;3.75;;;;;;;;;;6345202;28;20047;-81
2022/05/17 09:08:26;;;;;;;6.70;3.90;;;;;;;;;;6347118;28;20416;-81
2022/05/17 09:11:46;;;;;;;7.45;3.33;;;;;;;;;;6345024;28;20120;-80
2022/05/17 09:14:51;;;;;;;8.32;3.88;;;;;;;;;;6294094;28;20052;-81
2022/05/17 09:17:53;;;;;;;8.27;3.53;;;;;;;;;;6282098;28;20075;-82
2022/05/17 09:20:55;;;;;;;5.32;3.25;;;;;;;;;;6321493;28;20082;-83
2022/05/17 09:24:02;;;;;;;6.03;3.50;;;;;;;;;;6324560;28;20040;-80
2022/05/17 09:27:30;;;;;;;5.15;3.38;;;;;;;;;;6300548;28;20516;-83
2022/05/17 09:30:35;;;;;;;6.80;3.10;;;;;;;;;;6291607;28;20047;-80
2022/05/17 09:33:39;;;;;;;4.28;2.85;;;;;;;;;;6294699;28;20136;-80
2022/05/17 09:36:52;;;;;;;5.47;2.90;;;;;;;;;;6325571;28;20063;-81
2022/05/17 09:39:53;;;;;;;5.15;3.05;;;;;;;;;;6342582;28;20048;-80
2022/05/17 09:42:59;;;;;;;5.25;2.90;;;;;;;;;;6319267;28;20040;-80
2022/05/17 09:46:13;;;;;;;5.47;2.78;;;;;;;;;;6316450;28;20383;-80
2022/05/17 09:53:10;;;;;;;4.28;2.30;;;;;;;;;;6289804;28;20155;-79
2022/05/17 09:56:13;;;;;;;3.33;2.40;;;;;;;;;;6315447;28;20098;-80
2022/05/17 09:59:22;;;;;;;5.22;2.58;;;;;;;;;;6313295;28;20065;-80
2022/05/17 10:02:30;;;;;;;4.28;2.40;;;;;;;;;;6312012;28;20048;-81
2022/05/17 10:05:43;;;;;;;5.35;2.60;;;;;;;;;;6313892;28;20044;-81
2022/05/17 10:08:44;;;;;;;6.20;2.50;;;;;;;;;;6318311;28;20048;-80
2022/05/17 10:11:53;;;;;;;4.82;2.30;;;;;;;;;;6314103;28;20060;-83
2022/05/17 10:15:02;;;;;;;5.55;2.50;;;;;;;;;;6294257;28;20047;-84
2022/05/17 10:18:17;;;;;;;3.45;2.00;;;;;;;;;;6308105;28;20044;-83
2022/05/17 10:21:46;;;;;;;5.88;2.50;;;;;;;;;;6307402;28;20064;-83
2022/05/17 10:25:07;;;;;;;5.00;1.95;;;;;;;;;;6294157;28;20105;-82
2022/05/17 10:28:36;;;;;;;3.08;1.90;;;;;;;;;;6291818;28;20435;-81
2022/05/17 10:31:46;;;;;;;2.63;1.55;;;;;;;;;;6289616;28;20125;-80
2022/05/17 10:35:10;;;;;;;2.38;1.70;;;;;;;;;;6291123;28;20060;-80
2022/05/17 10:38:28;;;;;;;5.75;2.00;;;;;;;;;;6292566;28;20060;-80
2022/05/17 10:41:29;;;;;;;4.10;1.65;;;;;;;;;;6299511;28;20072;-81
2022/05/17 10:44:41;;;;;;;3.40;1.85;;;;;;;;;;6317774;28;20036;-82
2022/05/17 10:47:55;;;;;;;5.20;1.60;;;;;;;;;;6299372;28;20135;-82
2022/05/17 10:51:02;;;;;;;2.83;1.27;;;;;;;;;;6291981;28;20064;-81
2022/05/17 10:54:20;;;;;;;2.45;1.40;;;;;;;;;;6295470;28;20056;-81
2022/05/17 10:57:36;;;;;;;3.47;1.60;;;;;;;;;;6289687;28;20060;-82
2022/05/17 11:00:58;;;;;;;4.72;1.58;;;;;;;;;;6292488;28;20049;-80
2022/05/17 11:04:13;;;;;;;2.42;1.52;;;;;;;;;;6328149;28;20047;-80
2022/05/17 11:07:26;;;;;;;2.50;1.80;;;;;;;;;;6340603;28;20138;-79
2022/05/17 11:10:49;;;;;;;4.72;1.50;;;;;;;;;;6340798;28;20116;-78
2022/05/17 11:13:56;;;;;;;2.33;1.95;;;;;;;;;;6326151;28;20115;-80
2022/05/17 11:17:05;;;;;;;2.83;2.00;;;;;;;;;;6316224;28;20063;-81
2022/05/17 11:20:18;;;;;;;3.28;1.70;;;;;;;;;;6313263;28;20051;-82
2022/05/17 11:23:45;;;;;;;4.45;1.73;;;;;;;;;;6306253;28;20047;-82
2022/05/17 11:27:21;;;;;;;4.47;2.33;;;;;;;;;;6288348;28;20133;-80
2022/05/17 11:30:35;;;;;;;6.50;2.72;;;;;;;;;;6263637;28;20923;-80
2022/05/17 11:33:42;;;;;;;5.15;2.63;;;;;;;;;;6277041;28;20049;-81
2022/05/17 11:36:44;;;;;;;6.43;2.70;;;;;;;;;;6288899;28;20072;-79
2022/05/17 11:39:49;;;;;;;5.28;2.70;;;;;;;;;;6290838;28;20060;-78
2022/05/17 11:46:28;;;;;;;3.95;2.50;;;;;;;;;;6290136;28;20669;-79
2022/05/17 11:49:41;;;;;;;5.70;2.77;;;;;;;;;;6290941;28;20490;-80
2022/05/17 11:52:44;;;;;;;5.00;3.08;;;;;;;;;;6287154;28;20036;-77
2022/05/17 11:56:22;;;;;;;5.93;2.90;;;;;;;;;;6289089;28;20557;-79
2022/05/17 11:59:27;;;;;;;4.55;2.88;;;;;;;;;;6288246;28;20476;-78
2022/05/17 12:02:53;;;;;;;4.40;2.58;;;;;;;;;;6301606;28;20120;-79
2022/05/17 12:05:56;;;;;;;5.28;2.67;;;;;;;;;;6289648;28;20064;-81
2022/05/17 12:08:59;;;;;;;5.40;2.10;;;;;;;;;;6286258;28;20044;-79
2022/05/17 12:12:27;;;;;;;6.00;2.40;;;;;;;;;;6284800;28;20131;-80
2022/05/17 12:15:34;;;;;;;4.35;2.63;;;;;;;;;;6287247;28;20490;-80
2022/05/17 12:18:41;;;;;;;4.80;2.60;;;;;;;;;;6290367;28;20047;-80
2022/05/17 12:21:58;;;;;;;5.70;3.22;;;;;;;;;;6285853;28;20125;-81
2022/05/17 12:25:22;;;;;;;5.78;3.10;;;;;;;;;;6290407;28;20041;-80
2022/05/17 12:28:33;;;;;;;5.90;3.55;;;;;;;;;;6290795;28;20056;-80
2022/05/17 12:31:36;;;;;;;4.93;2.85;;;;;;;;;;6291195;28;20170;-81
2022/05/17 12:34:40;;;;;;;6.18;2.92;;;;;;;;;;6310051;28;20040;-80
2022/05/17 12:37:44;;;;;;;5.70;2.83;;;;;;;;;;6317055;28;20040;-79
2022/05/17 12:44:10;;;;;;;4.85;3.10;;;;;;;;;;6292701;28;20041;-82
2022/05/17 12:47:31;;;;;;;4.03;2.60;;;;;;;;;;6292636;28;20529;-82
2022/05/17 12:50:56;;;;;;;5.65;2.67;;;;;;;;;;6266232;28;20174;-81
2022/05/17 12:54:03;;;;;;;3.85;2.35;;;;;;;;;;6265703;28;20049;-82
2022/05/17 12:57:33;;;;;;;4.53;2.60;;;;;;;;;;6298158;28;20505;-81
2022/05/17 13:00:34;;;;;;;3.95;2.47;;;;;;;;;;6319432;28;20089;-82
2022/05/17 13:03:43;;;;;;;5.53;2.65;;;;;;;;;;6317231;28;20153;-82
2022/05/17 13:06:48;;;;;;;2.50;2.03;;;;;;;;;;6318898;28;20047;-82
2022/05/17 13:10:05;;;;;;;4.50;1.98;;;;;;;;;;6315698;28;20507;-82
2022/05/17 13:13:17;;;;;;;4.85;1.70;;;;;;;;;;6284254;28;20044;-82
2022/05/17 13:16:25;;;;;;;1.80;1.40;;;;;;;;;;6268303;28;20585;-82
2022/05/17 13:19:27;;;;;;;3.08;1.60;;;;;;;;;;6287614;28;20040;-81
2022/05/17 13:22:29;;;;;;;1.85;1.23;;;;;;;;;;6293927;28;20086;-82
2022/05/17 13:25:42;;;;;;;2.13;1.20;;;;;;;;;;6293235;28;20056;-81
2022/05/17 13:28:44;;;;;;;1.77;1.23;;;;;;;;;;6319425;28;20036;-82
2022/05/17 13:31:54;;;;;;;1.73;1.08;;;;;;;;;;6292322;28;20052;-83
2022/05/17 13:35:11;;;;;;;1.33;1.10;;;;;;;;;;6331409;28;20040;-85
2022/05/17 13:38:12;;;;;;;2.00;1.10;;;;;;;;;;6319419;28;20044;-84
2022/05/17 13:41:16;;;;;;;3.15;1.35;;;;;;;;;;6287349;28;20036;-84
2022/05/17 13:44:38;;;;;;;2.38;1.30;;;;;;;;;;6293932;28;20044;-82
2022/05/17 13:47:45;;;;;;;2.70;1.17;;;;;;;;;;6303826;28;20111;-83
2022/05/17 13:50:55;;;;;;;1.90;1.23;;;;;;;;;;6298883;28;20051;-80
2022/05/17 13:54:05;;;;;;;1.83;1.27;;;;;;;;;;6255457;28;20040;-83
2022/05/17 13:57:16;;;;;;;3.90;1.55;;;;;;;;;;6285265;28;20055;-82
2022/05/17 14:00:40;;;;;;;4.20;1.55;;;;;;;;;;6288995;28;20041;-81
2022/05/17 14:03:42;;;;;;;2.63;1.10;;;;;;;;;;6291485;28;20045;-80
2022/05/17 14:06:51;;;;;;;4.90;1.73;;;;;;;;;;6291842;28;20048;-83
2022/05/17 14:13:44;;;;;;;3.30;1.23;;;;;;;;;;6292351;28;20119;-82
2022/05/17 14:17:00;;;;;;;4.03;1.70;;;;;;;;;;6292551;28;20052;-83
2022/05/17 14:20:02;;;;;;;2.53;1.48;;;;;;;;;;6282124;28;20041;-82
2022/05/17 14:23:07;;;;;;;2.90;1.50;;;;;;;;;;6267547;28;20041;-82
2022/05/17 14:26:10;;;;;;;3.78;1.40;;;;;;;;;;6266183;28;20131;-83
2022/05/17 14:29:12;;;;;;;3.40;1.83;;;;;;;;;;6304026;28;20036;-82
2022/05/17 14:32:14;;;;;;;2.33;1.38;;;;;;;;;;6287149;28;20044;-80
2022/05/17 14:35:18;;;;;;;1.63;1.17;;;;;;;;;;6311481;28;20218;-83
2022/05/17 14:38:20;;;;;;;2.13;1.27;;;;;;;;;;6303888;28;20545;-79
2022/05/17 14:41:22;;;;;;;1.77;1.20;;;;;;;;;;6289856;28;20036;-81
2022/05/17 14:44:28;;;;;;;2.13;1.30;;;;;;;;;;6288765;28;20048;-82
2022/05/17 14:47:31;;;;;;;2.80;1.40;;;;;;;;;;6287170;28;20051;-81
2022/05/17 14:50:33;;;;;;;2.90;1.50;;;;;;;;;;6310053;28;20073;-81
2022/05/17 14:53:34;;;;;;;4.60;1.85;;;;;;;;;;6299052;28;20048;-81
2022/05/17 14:56:56;;;;;;;3.58;1.70;;;;;;;;;;6282401;28;20238;-80
2022/05/17 14:59:58;;;;;;;2.00;1.50;;;;;;;;;;6287212;28;20057;-80
2022/05/17 15:03:06;;;;;;;3.88;1.08;;;;;;;;;;6288394;28;20513;-80
2022/05/17 15:06:08;;;;;;;6.97;1.52;;;;;;;;;;6289623;28;20056;-81
2022/05/17 15:09:10;;;;;;;4.75;1.63;;;;;;;;;;6291041;28;20561;-80
2022/05/17 15:12:11;;;;;;;2.25;1.50;;;;;;;;;;6288922;28;20082;-81
2022/05/17 15:15:13;;;;;;;2.85;1.20;;;;;;;;;;6307326;28;20083;-80
2022/05/17 15:18:21;;;;;;;3.10;1.30;;;;;;;;;;6270739;28;20123;-81
2022/05/17 15:21:22;;;;;;;5.20;1.25;;;;;;;;;;6306947;28;20040;-81
2022/05/17 15:24:25;;;;;;;2.67;1.30;;;;;;;;;;6292810;28;20045;-81
2022/05/17 15:27:27;;;;;;;3.37;1.43;;;;;;;;;;6292785;28;20056;-80
2022/05/17 15:30:31;;;;;;;1.83;1.23;;;;;;;;;;6290663;28;20048;-81
2022/05/17 15:33:33;;;;;;;3.33;1.50;;;;;;;;;;6292157;28;20044;-81
2022/05/17 15:36:35;;;;;;;2.45;1.20;;;;;;;;;;6294482;28;20127;-82
2022/05/17 15:39:37;;;;;;;3.15;1.23;;;;;;;;;;6290629;28;20045;-80
2022/05/17 15:42:41;;;;;;;2.88;1.38;;;;;;;;;;6287173;28;20070;-81
2022/05/17 15:45:44;;;;;;;2.00;1.15;;;;;;;;;;6288937;28;20135;-80
2022/05/17 15:55:28;;;;;;;2.88;1.25;;;;;;;;;;6289169;28;20068;-80
2022/05/17 15:58:32;;;;;;;;;;;;;;;;;;6289764;28;20802;-81
2022/05/17 16:01:34;;;;;;;4.55;1.77;;;;;;;;;;6289452;28;19924;-79
2022/05/17 16:04:57;;;;;;;2.30;1.70;;;;;;;;;;6290627;28;20044;-78
2022/05/17 16:08:02;;;;;;;3.90;1.60;;;;;;;;;;6292150;28;20106;-79
2022/05/17 16:14:24;;;;;;;2.38;1.65;;;;;;;;;;6292109;28;20041;-80
2022/05/17 16:17:26;;;;;;;2.70;1.60;;;;;;;;;;6291104;28;20102;-82
2022/05/17 16:20:29;;;;;;;2.15;1.40;;;;;;;;;;6315815;28;20074;-79
2022/05/17 16:23:30;;;;;;;2.22;1.50;;;;;;;;;;6291170;28;20048;-81
2022/05/17 16:26:33;;;;;;;3.05;1.45;;;;;;;;;;6292645;28;20055;-80
2022/05/17 16:29:35;;;;;;;2.88;1.40;;;;;;;;;;6292048;28;20064;-82
2022/05/17 16:32:39;;;;;;;3.03;1.58;;;;;;;;;;6300613;28;20036;-80
2022/05/17 16:35:44;;;;;;;3.05;1.60;;;;;;;;;;6288565;28;20044;-80
2022/05/17 16:38:46;;;;;;;2.72;1.60;;;;;;;;;;6290237;28;20052;-80
2022/05/17 16:41:47;;;;;;;3.45;1.90;;;;;;;;;;6288836;28;20068;-80
2022/05/17 16:44:49;;;;;;;2.10;1.75;;;;;;;;;;6285617;28;20126;-82
2022/05/17 16:47:52;;;;;;;3.92;1.70;;;;;;;;;;6289486;28;20064;-82
2022/05/17 16:50:54;;;;;;;2.95;1.70;;;;;;;;;;6312747;28;20125;-81
2022/05/17 16:54:18;;;;;;;2.25;1.70;;;;;;;;;;6313518;28;20063;-81
2022/05/17 16:57:23;;;;;;;3.55;1.80;;;;;;;;;;6288658;28;20044;-81
2022/05/17 17:00:26;;;;;;;2.03;1.50;;;;;;;;;;6288097;28;20101;-80
2022/05/17 17:03:27;;;;;;;;;;;;;;;;;;6323306;28;20063;-80
2022/05/17 17:06:33;;;;;;;3.67;1.98;;;;;;;;;;6291691;28;19921;-80
2022/05/17 17:09:34;;;;;;;1.90;1.70;;;;;;;;;;6286519;28;20055;-80
2022/05/17 17:12:36;;;;;;;3.05;2.72;;;;;;;;;;6292099;28;20040;-79
2022/05/17 17:15:38;;;;;;;3.80;1.85;;;;;;;;;;6302680;28;20083;-79
2022/05/17 17:18:41;;;;;;;5.20;2.20;;;;;;;;;;6301666;28;20067;-80
2022/05/17 17:21:42;;;;;;;3.13;1.98;;;;;;;;;;6311914;28;20074;-80
2022/05/17 17:24:44;;;;;;;4.00;1.70;;;;;;;;;;6311719;28;20056;-80
2022/05/17 17:27:58;;;;;;;3.47;1.70;;;;;;;;;;6296479;28;20059;-80
2022/05/17 17:31:01;;;;;;;3.00;2.00;;;;;;;;;;6313867;28;20101;-80
2022/05/17 17:37:26;;;;;;;2.97;1.98;;;;;;;;;;6290381;28;20068;-81
2022/05/17 17:40:29;;;;;;;4.05;1.95;;;;;;;;;;6288979;28;20127;-78
2022/05/17 17:43:31;;;;;;;2.38;2.08;;;;;;;;;;6298340;28;20066;-79
2022/05/17 17:46:34;;;;;;;3.05;1.70;;;;;;;;;;6314882;28;20033;-79
2022/05/17 17:49:36;;;;;;;2.40;1.45;;;;;;;;;;6293786;28;20110;-80
2022/05/17 17:52:37;;;;;;;3.67;1.70;;;;;;;;;;6293716;28;20048;-79
2022/05/17 17:55:40;;;;;;;4.97;2.20;;;;;;;;;;6293539;28;20114;-79
2022/05/17 17:58:43;;;;;;;;;;;;;;;;;;6290473;28;20070;-79
2022/05/17 18:01:46;;;;;;;1.90;1.43;;;;;;;;;;6317646;28;19924;-81
2022/05/17 18:04:48;;;;;;;4.22;1.98;;;;;;;;;;6335375;28;20526;-80
2022/05/17 18:07:50;;;;;;;4.53;1.75;;;;;;;;;;6317927;28;20102;-80
2022/05/17 18:10:51;;;;;;;2.42;1.73;;;;;;;;;;6312024;28;20101;-80
2022/05/17 18:13:53;;;;;;;4.22;1.95;;;;;;;;;;6313256;28;20649;-80
2022/05/17 18:16:57;;;;;;;4.78;2.03;;;;;;;;;;6312046;28;20125;-80
2022/05/17 18:20:00;;;;;;;4.57;1.92;;;;;;;;;;6297884;28;20066;-81
2022/05/17 18:23:01;;;;;;;3.63;1.85;;;;;;;;;;6321360;28;20059;-80
2022/05/17 18:26:03;;;;;;;3.80;1.90;;;;;;;;;;6291472;28;20858;-80
2022/05/17 18:29:25;;;;;;;3.92;2.00;;;;;;;;;;6287565;28;20045;-81
2022/05/17 18:32:30;;;;;;;6.55;1.83;;;;;;;;;;6285741;28;23704;-80
2022/05/17 18:35:33;;;;;;;3.55;1.65;;;;;;;;;;6285113;28;20048;-80
2022/05/17 18:38:37;;;;;;;2.92;1.92;;;;;;;;;;6285450;28;20055;-80
2022/05/17 18:41:39;;;;;;;4.93;2.05;;;;;;;;;;6285108;28;20095;-80
2022/05/17 18:44:41;;;;;;;2.63;2.10;;;;;;;;;;6285284;28;20490;-80
2022/05/17 18:47:47;;;;;;;5.47;2.00;;;;;;;;;;6285616;28;20138;-81
2022/05/17 18:50:49;;;;;;;3.47;2.08;;;;;;;;;;6285947;28;20128;-80
2022/05/17 18:53:51;;;;;;;3.67;2.10;;;;;;;;;;6283448;28;20041;-80